createdAt,value
2023-05-01T00:01:35.396Z,4.35
2023-05-01T00:04:39.281Z,4.47
2023-05-01T00:07:42.636Z,4.65
2023-05-01T00:10:47.417Z,3.72
2023-05-01T00:13:51.237Z,3.40
2023-05-01T00:16:55.204Z,4.60
2023-05-01T00:19:58.833Z,2.95
2023-05-01T00:23:02.888Z,2.60
2023-05-01T00:26:06.502Z,2.35
2023-05-01T00:29:10.419Z,2.50
2023-05-01T00:32:14.170Z,2.25
2023-05-01T00:35:18.375Z,2.20
2023-05-01T00:38:22.064Z,2.28
2023-05-01T00:41:26.010Z,2.53
2023-05-01T00:44:29.367Z,2.33
2023-05-01T00:47:32.900Z,2.03
2023-05-01T00:50:36.006Z,2.63
2023-05-01T00:53:44.093Z,2.42
2023-05-01T00:56:48.983Z,2.92
2023-05-01T00:59:52.965Z,2.53
2023-05-01T01:02:56.121Z,3.00
2023-05-01T01:06:06.059Z,2.70
2023-05-01T01:09:37.351Z,2.67
2023-05-01T01:12:51.810Z,2.20
2023-05-01T01:16:18.292Z,2.50
2023-05-01T01:19:35.974Z,2.45
2023-05-01T01:26:03.068Z,3.28
2023-05-01T01:29:28.350Z,3.70
2023-05-01T01:33:09.932Z,3.67
2023-05-01T01:36:20.001Z,2.80
2023-05-01T01:39:34.696Z,3.67
2023-05-01T01:42:50.385Z,3.75
2023-05-01T01:46:04.284Z,3.38
2023-05-01T01:49:14.208Z,3.60
2023-05-01T01:52:19.732Z,2.45
2023-05-01T01:55:28.775Z,2.60
2023-05-01T01:58:33.215Z,2.53
2023-05-01T02:01:39.973Z,2.67
2023-05-01T02:04:44.938Z,2.83
2023-05-01T02:07:51.558Z,3.35
2023-05-01T02:11:02.001Z,2.97
2023-05-01T02:14:07.614Z,2.67
2023-05-01T02:17:11.781Z,3.45
2023-05-01T02:20:16.924Z,3.20
2023-05-01T02:23:20.062Z,2.33
2023-05-01T02:26:27.319Z,2.70
2023-05-01T02:29:31.185Z,4.07
2023-05-01T02:32:34.966Z,2.80
2023-05-01T02:35:45.452Z,2.80
2023-05-01T02:38:52.912Z,2.58
2023-05-01T02:41:59.729Z,2.80
2023-05-01T02:45:08.647Z,2.97
2023-05-01T02:48:18.199Z,2.10
2023-05-01T02:51:24.421Z,2.60
2023-05-01T02:54:27.940Z,2.38
2023-05-01T02:57:34.447Z,2.08
2023-05-01T03:00:38.714Z,2.15
2023-05-01T03:03:41.834Z,2.38
2023-05-01T03:06:45.580Z,2.45
2023-05-01T03:09:49.082Z,2.63
2023-05-01T03:12:53.173Z,3.00
2023-05-01T03:15:57.346Z,2.50
2023-05-01T03:19:01.321Z,2.00
2023-05-01T03:22:04.953Z,2.00
2023-05-01T03:25:10.281Z,1.80
2023-05-01T03:28:14.870Z,2.42
2023-05-01T03:31:22.986Z,2.10
2023-05-01T03:34:29.075Z,2.92
2023-05-01T03:37:34.380Z,2.22
2023-05-01T03:40:38.939Z,2.63
2023-05-01T03:44:04.734Z,2.05
2023-05-01T03:47:20.845Z,1.85
2023-05-01T03:50:24.568Z,1.77
2023-05-01T03:53:28.643Z,2.10
2023-05-01T03:56:36.150Z,2.38
2023-05-01T03:59:44.752Z,2.15
2023-05-01T04:02:49.647Z,2.25
2023-05-01T04:05:58.948Z,2.40
2023-05-01T04:09:03.056Z,2.40
2023-05-01T04:12:07.311Z,2.70
2023-05-01T04:15:11.589Z,1.75
2023-05-01T04:18:16.142Z,1.75
2023-05-01T04:21:19.961Z,1.83
2023-05-01T04:24:27.229Z,2.63
2023-05-01T04:27:31.343Z,2.22
2023-05-01T04:30:35.510Z,2.22
2023-05-01T04:33:40.162Z,2.60
2023-05-01T04:36:44.254Z,1.95
2023-05-01T04:39:48.290Z,1.95
2023-05-01T04:42:53.941Z,2.80
2023-05-01T04:45:57.038Z,1.90
2023-05-01T04:49:00.648Z,2.63
2023-05-01T04:52:03.787Z,2.10
2023-05-01T04:55:19.245Z,2.20
2023-05-01T04:58:37.872Z,1.90
2023-05-01T05:01:46.597Z,2.10
2023-05-01T05:04:51.629Z,2.10
2023-05-01T05:07:55.562Z,2.00
2023-05-01T05:11:02.701Z,2.65
2023-05-01T05:14:25.148Z,2.03
2023-05-01T05:17:30.331Z,2.80
2023-05-01T05:20:34.279Z,2.00
2023-05-01T05:23:38.482Z,2.35
2023-05-01T05:26:42.509Z,2.47
2023-05-01T05:29:46.410Z,2.40
2023-05-01T05:32:50.733Z,2.33
2023-05-01T05:35:54.640Z,2.30
2023-05-01T05:39:02.473Z,2.80
2023-05-01T05:42:08.808Z,2.83
2023-05-01T05:45:15.768Z,2.58
2023-05-01T05:48:20.403Z,2.20
2023-05-01T05:51:24.078Z,2.67
2023-05-01T05:54:29.090Z,2.40
2023-05-01T05:57:32.572Z,2.60
2023-05-01T06:00:37.302Z,2.50
2023-05-01T06:03:42.591Z,2.50
2023-05-01T06:06:50.713Z,2.65
2023-05-01T06:09:54.037Z,2.40
2023-05-01T06:13:11.548Z,2.70
2023-05-01T06:16:22.004Z,2.60
2023-05-01T06:19:26.360Z,2.90
2023-05-01T06:22:39.447Z,2.72
2023-05-01T06:25:57.434Z,2.58
2023-05-01T06:29:00.891Z,2.42
2023-05-01T06:32:05.486Z,3.13
2023-05-01T06:35:09.903Z,2.80
2023-05-01T06:38:13.800Z,2.83
2023-05-01T06:41:18.277Z,2.88
2023-05-01T06:44:22.742Z,3.33
2023-05-01T06:47:26.791Z,3.05
2023-05-01T06:50:30.912Z,3.17
2023-05-01T06:53:36.254Z,2.78
2023-05-01T06:56:40.515Z,2.60
2023-05-01T06:59:44.830Z,2.80
2023-05-01T07:02:48.970Z,3.22
2023-05-01T07:05:52.473Z,3.10
2023-05-01T07:08:55.789Z,2.70
2023-05-01T07:12:00.171Z,3.03
2023-05-01T07:15:04.120Z,3.03
2023-05-01T07:18:07.711Z,3.47
2023-05-01T07:21:12.561Z,2.95
2023-05-01T07:24:16.164Z,2.60
2023-05-01T07:27:19.440Z,3.13
2023-05-01T07:30:23.775Z,3.00
2023-05-01T07:33:27.395Z,2.97
2023-05-01T07:36:31.675Z,3.42
2023-05-01T07:39:35.145Z,3.30
2023-05-01T07:42:39.571Z,3.30
2023-05-01T07:45:43.397Z,2.80
2023-05-01T07:48:47.019Z,2.90
2023-05-01T07:51:51.156Z,3.08
2023-05-01T07:54:55.932Z,3.00
2023-05-01T07:57:59.694Z,2.60
2023-05-01T08:01:04.694Z,2.67
2023-05-01T08:04:08.663Z,2.83
2023-05-01T08:07:12.945Z,2.58
2023-05-01T08:10:16.734Z,2.47
2023-05-01T08:13:21.104Z,2.70
2023-05-01T08:16:24.374Z,2.40
2023-05-01T08:19:28.858Z,2.75
2023-05-01T08:22:32.654Z,2.83
2023-05-01T08:25:36.129Z,2.90
2023-05-01T08:28:39.562Z,2.75
2023-05-01T08:31:44.624Z,2.97
2023-05-01T08:34:48.439Z,2.80
2023-05-01T08:37:51.803Z,3.17
2023-05-01T08:40:57.398Z,2.70
2023-05-01T08:44:04.980Z,2.42
2023-05-01T08:47:19.015Z,2.33
2023-05-01T08:50:24.921Z,2.80
2023-05-01T08:53:29.324Z,3.10
2023-05-01T08:56:36.758Z,3.20
2023-05-01T08:59:41.439Z,3.00
2023-05-01T09:02:47.790Z,2.80
2023-05-01T09:05:51.880Z,3.00
2023-05-01T09:08:59.389Z,3.20
2023-05-01T09:12:19.381Z,3.50
2023-05-01T09:15:24.065Z,3.00
2023-05-01T09:18:27.334Z,2.80
2023-05-01T09:21:32.945Z,2.13
2023-05-01T09:24:36.675Z,3.38
2023-05-01T09:27:40.404Z,3.55
2023-05-01T09:30:45.498Z,4.80
2023-05-01T09:34:15.636Z,3.20
2023-05-01T09:37:32.196Z,3.78
2023-05-01T09:40:36.235Z,4.10
2023-05-01T09:43:40.031Z,3.95
2023-05-01T09:46:44.753Z,3.85
2023-05-01T09:49:49.742Z,4.30
2023-05-01T09:52:53.574Z,4.47
2023-05-01T09:56:03.640Z,4.05
2023-05-01T09:59:22.478Z,3.88
2023-05-01T10:02:31.357Z,3.95
2023-05-01T10:05:47.775Z,4.05
2023-05-01T10:08:51.904Z,4.85
2023-05-01T10:11:58.393Z,4.38
2023-05-01T10:15:13.721Z,4.70
2023-05-01T10:18:26.750Z,4.53
2023-05-01T10:21:31.038Z,2.97
2023-05-01T10:24:35.302Z,3.55
2023-05-01T10:27:41.292Z,4.38
2023-05-01T10:30:48.030Z,4.28
2023-05-01T10:33:51.219Z,5.45
2023-05-01T10:37:01.632Z,3.92
2023-05-01T10:40:42.691Z,2.63
2023-05-01T10:43:46.728Z,2.45
2023-05-01T10:46:50.418Z,2.60
2023-05-01T10:50:11.577Z,1.98
2023-05-01T10:53:16.311Z,1.45
2023-05-01T10:56:24.962Z,1.25
2023-05-01T10:59:49.039Z,1.48
2023-05-01T11:02:53.098Z,1.60
2023-05-01T11:06:05.275Z,1.52
2023-05-01T11:09:39.837Z,1.80
2023-05-01T11:12:50.871Z,2.20
2023-05-01T11:15:54.823Z,3.08
2023-05-01T11:18:57.973Z,3.60
2023-05-01T11:22:02.295Z,4.15
2023-05-01T11:25:18.661Z,3.00
2023-05-01T11:28:22.701Z,1.90
2023-05-01T11:31:30.097Z,1.80
2023-05-01T11:34:39.474Z,1.55
2023-05-01T11:37:47.424Z,1.10
2023-05-01T11:40:57.203Z,2.13
2023-05-01T11:44:00.601Z,3.10
2023-05-01T11:47:04.791Z,3.03
2023-05-01T11:50:09.894Z,2.75
2023-05-01T11:53:20.056Z,3.60
2023-05-01T11:56:27.223Z,3.13
2023-05-01T11:59:31.585Z,2.80
2023-05-01T12:02:35.252Z,3.33
2023-05-01T12:05:42.888Z,3.33
2023-05-01T12:08:54.107Z,2.33
2023-05-01T12:12:01.558Z,1.70
2023-05-01T12:15:05.303Z,1.63
2023-05-01T12:18:09.853Z,2.40
2023-05-01T12:24:35.653Z,1.75
2023-05-01T12:27:44.671Z,2.22
2023-05-01T12:34:09.024Z,2.13
2023-05-01T12:37:12.872Z,2.17
2023-05-01T12:40:17.685Z,3.08
2023-05-01T12:43:50.057Z,3.72
2023-05-01T12:47:07.679Z,3.38
2023-05-01T12:53:15.191Z,3.97
2023-05-01T12:56:26.741Z,4.20
2023-05-01T12:59:30.322Z,4.75
2023-05-01T13:02:35.603Z,5.35
2023-05-01T13:06:00.792Z,3.60
2023-05-01T13:09:11.088Z,2.42
2023-05-01T13:12:15.602Z,2.10
2023-05-01T13:15:22.934Z,2.97
2023-05-01T13:18:27.347Z,3.95
2023-05-01T13:24:51.223Z,3.60
2023-05-01T13:28:04.414Z,3.40
2023-05-01T13:31:15.697Z,3.08
2023-05-01T13:34:32.219Z,2.97
2023-05-01T13:37:37.718Z,4.40
2023-05-01T13:40:42.377Z,4.40
2023-05-01T13:43:45.383Z,5.15
2023-05-01T13:46:49.329Z,3.78
2023-05-01T13:49:53.208Z,3.63
2023-05-01T13:52:56.868Z,3.03
2023-05-01T13:56:00.609Z,3.35
2023-05-01T13:59:06.171Z,3.13
2023-05-01T14:02:30.209Z,3.60
2023-05-01T14:05:34.429Z,2.78
2023-05-01T14:08:38.805Z,3.63
2023-05-01T14:11:47.805Z,3.47
2023-05-01T14:21:54.726Z,3.20
2023-05-01T14:28:17.975Z,4.03
2023-05-01T14:31:30.786Z,4.43
2023-05-01T14:34:34.511Z,3.35
2023-05-01T14:38:22.466Z,3.70
2023-05-01T14:41:26.760Z,4.28
2023-05-01T14:44:30.700Z,2.72
2023-05-01T14:47:34.585Z,2.42
2023-05-01T14:50:39.317Z,3.28
2023-05-01T14:53:46.017Z,2.90
2023-05-01T14:56:50.580Z,3.30
2023-05-01T15:04:27.345Z,3.67
2023-05-01T15:07:31.180Z,3.80
2023-05-01T15:10:35.877Z,3.30
2023-05-01T15:13:41.371Z,3.40
2023-05-01T15:16:45.722Z,3.67
2023-05-01T15:19:54.218Z,4.03
2023-05-01T15:22:58.751Z,4.60
2023-05-01T15:26:03.435Z,3.67
2023-05-01T15:29:07.453Z,3.63
2023-05-01T15:32:12.775Z,4.63
2023-05-01T15:35:18.505Z,4.28
2023-05-01T15:38:22.895Z,5.20
2023-05-01T15:41:27.774Z,6.00
2023-05-01T15:44:32.927Z,6.07
2023-05-01T15:47:37.113Z,5.35
2023-05-01T15:50:41.793Z,5.57
2023-05-01T15:53:45.888Z,4.55
2023-05-01T15:56:49.637Z,4.53
2023-05-01T15:59:57.085Z,4.72
2023-05-01T16:03:05.550Z,4.55
2023-05-01T16:06:09.907Z,4.63
2023-05-01T16:09:14.295Z,4.32
2023-05-01T16:12:19.159Z,3.60
2023-05-01T16:15:23.781Z,3.53
2023-05-01T16:18:28.355Z,4.10
2023-05-01T16:21:32.863Z,3.20
2023-05-01T16:24:37.664Z,3.95
2023-05-01T16:27:48.541Z,4.13
2023-05-01T16:30:52.886Z,3.83
2023-05-01T16:33:59.275Z,4.90
2023-05-01T16:37:03.590Z,4.78
2023-05-01T16:40:08.223Z,4.70
2023-05-01T16:43:12.195Z,4.13
2023-05-01T16:46:19.960Z,2.38
2023-05-01T16:49:26.326Z,2.58
2023-05-01T16:52:29.683Z,2.15
2023-05-01T16:55:33.452Z,2.22
2023-05-01T16:58:37.716Z,2.50
2023-05-01T17:01:41.565Z,1.90
2023-05-01T17:04:46.416Z,2.13
2023-05-01T17:07:50.813Z,1.60
2023-05-01T17:10:54.377Z,2.00
2023-05-01T17:13:58.322Z,1.60
2023-05-01T17:17:02.590Z,1.30
2023-05-01T17:20:07.330Z,1.60
2023-05-01T17:23:13.282Z,1.15
2023-05-01T17:26:17.330Z,0.95
2023-05-01T17:29:21.769Z,1.10
2023-05-01T17:32:33.491Z,1.60
2023-05-01T17:35:40.556Z,1.40
2023-05-01T17:38:44.480Z,1.70
2023-05-01T17:41:50.343Z,1.65
2023-05-01T17:44:53.740Z,1.67
2023-05-01T17:47:57.830Z,1.88
2023-05-01T17:51:01.110Z,2.30
2023-05-01T17:54:04.364Z,2.33
2023-05-01T17:57:10.150Z,2.50
2023-05-01T18:00:14.038Z,2.22
2023-05-01T18:03:17.798Z,2.00
2023-05-01T18:06:21.993Z,2.05
2023-05-01T18:09:25.985Z,1.48
2023-05-01T18:12:29.961Z,1.58
2023-05-01T18:15:34.121Z,1.30
2023-05-01T18:18:37.354Z,1.67
2023-05-01T18:21:42.014Z,1.70
2023-05-01T18:24:45.519Z,1.63
2023-05-01T18:27:50.367Z,2.05
2023-05-01T18:30:54.475Z,1.60
2023-05-01T18:33:59.400Z,1.48
2023-05-01T18:37:03.446Z,1.58
2023-05-01T18:40:09.214Z,1.50
2023-05-01T18:43:13.138Z,1.75
2023-05-01T18:46:16.832Z,1.42
2023-05-01T18:49:24.433Z,1.85
2023-05-01T18:52:27.975Z,1.63
2023-05-01T18:55:32.029Z,1.55
2023-05-01T18:58:35.957Z,1.35
2023-05-01T19:01:40.229Z,1.42
2023-05-01T19:04:56.925Z,2.30
2023-05-01T19:11:09.840Z,1.20
2023-05-01T19:14:14.131Z,1.02
2023-05-01T19:17:17.588Z,1.30
2023-05-01T19:20:20.975Z,1.45
2023-05-01T19:23:25.150Z,1.23
2023-05-01T19:26:30.212Z,1.05
2023-05-01T19:29:34.289Z,0.95
2023-05-01T19:32:37.920Z,1.33
2023-05-01T19:35:42.103Z,1.10
2023-05-01T19:38:46.414Z,1.40
2023-05-01T19:41:49.889Z,1.75
2023-05-01T19:44:54.199Z,2.20
2023-05-01T19:47:57.986Z,2.80
2023-05-01T19:51:01.407Z,2.40
2023-05-01T19:54:05.450Z,2.75
2023-05-01T19:57:09.122Z,2.80
2023-05-01T20:00:13.263Z,3.30
2023-05-01T20:03:17.730Z,2.17
2023-05-01T20:06:21.936Z,2.80
2023-05-01T20:09:26.530Z,1.55
2023-05-01T20:12:30.168Z,1.48
2023-05-01T20:15:34.050Z,1.35
2023-05-01T20:18:38.215Z,1.40
2023-05-01T20:21:41.998Z,1.30
2023-05-01T20:24:46.014Z,1.23
2023-05-01T20:27:49.707Z,1.15
2023-05-01T20:30:53.837Z,1.15
2023-05-01T20:33:57.584Z,1.20
2023-05-01T20:37:01.052Z,1.08
2023-05-01T20:40:05.927Z,0.98
2023-05-01T20:43:10.401Z,0.90
2023-05-01T20:46:14.989Z,1.05
2023-05-01T20:49:18.484Z,0.90
2023-05-01T20:52:22.651Z,0.70
2023-05-01T20:55:26.083Z,0.82
2023-05-01T20:58:29.850Z,1.00
2023-05-01T21:01:33.541Z,0.90
2023-05-01T21:04:38.601Z,0.90
2023-05-01T21:07:43.402Z,5.22
2023-05-01T21:10:47.277Z,2.75
2023-05-01T21:13:52.035Z,1.73
2023-05-01T21:16:55.510Z,2.30
2023-05-01T21:19:59.718Z,1.92
2023-05-01T21:23:03.562Z,3.92
2023-05-01T21:26:07.247Z,3.20
2023-05-01T21:29:11.290Z,4.40
2023-05-01T21:32:15.533Z,4.80
2023-05-01T21:35:20.835Z,5.05
2023-05-01T21:38:24.398Z,4.18
2023-05-01T21:41:28.877Z,3.13
2023-05-01T21:44:32.215Z,3.30
2023-05-01T21:47:42.325Z,3.83
2023-05-01T21:50:49.933Z,5.30
2023-05-01T21:53:54.485Z,3.80
2023-05-01T21:57:01.718Z,5.55
2023-05-01T22:00:10.309Z,4.88
2023-05-01T22:03:18.595Z,2.85
2023-05-01T22:09:28.265Z,2.90
2023-05-01T22:12:31.973Z,3.22
2023-05-01T22:15:35.435Z,2.67
2023-05-01T22:18:38.750Z,2.92
2023-05-01T22:21:41.910Z,1.73
2023-05-01T22:24:45.728Z,1.85
2023-05-01T22:27:49.378Z,2.67
2023-05-01T22:30:53.279Z,2.50
2023-05-01T22:33:57.032Z,2.28
2023-05-01T22:37:00.640Z,2.28
2023-05-01T22:40:04.214Z,2.25
2023-05-01T22:43:08.639Z,1.70
2023-05-01T22:46:11.864Z,0.82
2023-05-01T22:49:15.642Z,2.08
2023-05-01T22:52:18.642Z,1.77
2023-05-01T22:55:21.685Z,2.20
2023-05-01T22:58:24.696Z,3.10
2023-05-01T23:01:28.878Z,2.63
2023-05-01T23:04:32.829Z,3.05
2023-05-01T23:07:36.332Z,3.30
2023-05-01T23:10:43.181Z,3.17
2023-05-01T23:13:49.300Z,3.20
2023-05-01T23:16:53.099Z,3.83
2023-05-01T23:19:59.503Z,3.55
2023-05-01T23:23:05.786Z,3.47
2023-05-01T23:26:09.991Z,2.92
2023-05-01T23:29:19.102Z,3.72
2023-05-01T23:32:30.619Z,3.60
2023-05-01T23:35:33.671Z,2.65
2023-05-01T23:38:36.871Z,3.20
2023-05-01T23:41:40.831Z,2.45
2023-05-01T23:44:45.277Z,2.05
2023-05-01T23:47:49.292Z,2.95
2023-05-01T23:50:52.473Z,3.28
2023-05-01T23:53:55.728Z,3.10
2023-05-01T23:56:59.734Z,3.03
